CheckWX is a tool to help pilots better visualize weather data.  It is not intended as a substitute for an official pre-flight weather briefing.

02:03:51 UTC

KXNA METAR
Northwest Arkansas Regional Airport
Fayetteville/Springdale/Rogers, Arkansas, USA
Current

11 mins ago

KXNA 130153Z 19006KT 10SM FEW065 06/M04 A3007 RMK AO2 SLP188 T00561044
Observed
Dec-13 @ 01:53 UTC
Wind
  • 190° at 6 KTS
Visibility
10 SM
Flight Rules
VFR
Cloud Levels
  • Few at 6,500' AGL
Temperature
C / 43°F
Dewpoint
-4°C / 25°F
Humidity
49%
Altimeter
30.07" Hg
Pressure
1018.32 hPa
Previous

1 hour ago

KXNA 130053Z 17006KT 10SM CLR 04/M05 A3008 RMK AO2 SLP189 T00391050
Observed
Dec-13 @ 00:53 UTC
Wind
  • 170° at 6 KTS
Visibility
10 SM
Flight Rules
VFR
Cloud Levels
  • Clear skies
Temperature
C / 39°F
Dewpoint
-5°C / 23°F
Humidity
52%
Altimeter
30.08" Hg
Pressure
1018.62 hPa
Previous

2 hours ago

KXNA 122353Z 18006KT 10SM CLR 07/M06 A3008 RMK AO2 SLP190 60000 T00671056 10122 20050 55001
Observed
Dec-12 @ 23:53 UTC
Wind
  • 180° at 6 KTS
Visibility
10 SM
Flight Rules
VFR
Cloud Levels
  • Clear skies
Temperature
C / 45°F
Dewpoint
-6°C / 21°F
Humidity
39%
Altimeter
30.08" Hg
Pressure
1018.62 hPa